Time;durP1;ratioP1;P1;durP2;ratioP2;P2;SDS_P1;SDS_P2;PMS_P1;PMS_P2;Temp;Humidity;BMP_temperature;BMP_pressure;BME280_temperature;BME280_humidity;BME280_pressure;Samples;Min_cycle;Max_cycle;Signal;HPM_P1;HPM_P2
2022/06/23 00:00:28;;;;;;;7.18;3.67;;;;;;;;;;8354404;28;20058;-60
2022/06/23 00:04:32;;;;;;;10.43;4.30;;;;;;;;;;8354933;28;20032;-60
2022/06/23 00:08:41;;;;;;;6.55;3.53;;;;;;;;;;8356288;28;20013;-60
2022/06/23 00:12:43;;;;;;;8.75;4.03;;;;;;;;;;8355229;28;20036;-60
2022/06/23 00:16:44;;;;;;;7.93;3.88;;;;;;;;;;8353569;28;20045;-60
2022/06/23 00:20:49;;;;;;;7.53;3.95;;;;;;;;;;8355217;28;20024;-60
2022/06/23 00:24:55;;;;;;;8.68;3.97;;;;;;;;;;8352815;28;20064;-59
2022/06/23 00:29:01;;;;;;;10.50;3.80;;;;;;;;;;8353247;28;20020;-61
2022/06/23 00:33:15;;;;;;;7.80;3.85;;;;;;;;;;8351680;28;20036;-60
2022/06/23 00:37:17;;;;;;;7.32;3.60;;;;;;;;;;8356337;28;20110;-60
2022/06/23 00:41:20;;;;;;;6.15;3.50;;;;;;;;;;8353077;28;20032;-60
2022/06/23 00:45:32;;;;;;;8.68;3.90;;;;;;;;;;8355177;28;20039;-60
2022/06/23 00:49:39;;;;;;;7.28;3.30;;;;;;;;;;8353417;28;20929;-60
2022/06/23 00:53:39;;;;;;;7.85;3.70;;;;;;;;;;8352322;28;20086;-60
2022/06/23 00:57:48;;;;;;;7.70;3.40;;;;;;;;;;8354255;28;20982;-60
2022/06/23 01:01:56;;;;;;;7.30;3.72;;;;;;;;;;8354424;28;20044;-61
2022/06/23 01:06:06;;;;;;;7.40;3.80;;;;;;;;;;8354967;28;20024;-61
2022/06/23 01:10:12;;;;;;;8.90;3.95;;;;;;;;;;8351747;28;20021;-60
2022/06/23 01:14:34;;;;;;;8.43;4.03;;;;;;;;;;8350240;28;20115;-59
2022/06/23 01:18:48;;;;;;;7.47;3.45;;;;;;;;;;8351157;28;20561;-60
2022/06/23 01:22:48;;;;;;;5.85;3.38;;;;;;;;;;8350958;28;20029;-61
2022/06/23 01:27:07;;;;;;;4.82;3.47;;;;;;;;;;8355362;28;20544;-60
2022/06/23 01:31:10;;;;;;;6.80;3.50;;;;;;;;;;8353038;28;20715;-60
2022/06/23 01:35:16;;;;;;;5.15;3.20;;;;;;;;;;8352749;28;20531;-60
2022/06/23 01:39:24;;;;;;;9.07;3.80;;;;;;;;;;8351616;28;20490;-60
2022/06/23 01:43:39;;;;;;;6.28;3.72;;;;;;;;;;8353289;28;20032;-60
2022/06/23 01:47:46;;;;;;;4.97;3.35;;;;;;;;;;8357656;28;20370;-60
2022/06/23 01:51:49;;;;;;;10.18;3.60;;;;;;;;;;8359299;28;20135;-60
2022/06/23 01:56:01;;;;;;;8.02;4.07;;;;;;;;;;8359669;28;20055;-60
2022/06/23 02:00:07;;;;;;;7.78;3.42;;;;;;;;;;8360318;28;20136;-60
2022/06/23 02:04:15;;;;;;;6.25;3.75;;;;;;;;;;8358884;28;20071;-60
2022/06/23 02:08:28;;;;;;;9.02;4.07;;;;;;;;;;8358510;28;21071;-60
2022/06/23 02:12:29;;;;;;;5.15;3.17;;;;;;;;;;8358363;28;20028;-60
2022/06/23 02:16:44;;;;;;;7.47;3.55;;;;;;;;;;8355687;28;20047;-60
2022/06/23 02:20:56;;;;;;;7.95;3.70;;;;;;;;;;8359083;28;20051;-60
2022/06/23 02:25:12;;;;;;;7.63;3.25;;;;;;;;;;8358593;28;20032;-60
2022/06/23 02:29:21;;;;;;;8.45;4.05;;;;;;;;;;8358790;28;20577;-60
2022/06/23 02:33:25;;;;;;;8.88;3.60;;;;;;;;;;8354974;28;20048;-60
2022/06/23 02:37:44;;;;;;;7.25;3.63;;;;;;;;;;8358947;28;20126;-60
2022/06/23 02:41:54;;;;;;;10.77;3.67;;;;;;;;;;8357437;28;20036;-60
2022/06/23 02:46:13;;;;;;;6.38;3.47;;;;;;;;;;8357323;28;20048;-60
2022/06/23 02:50:25;;;;;;;11.32;4.18;;;;;;;;;;8355878;28;20032;-60
2022/06/23 02:54:40;;;;;;;9.27;3.95;;;;;;;;;;8356406;28;20021;-60
2022/06/23 02:58:40;;;;;;;11.48;4.03;;;;;;;;;;8355617;28;20765;-60
2022/06/23 03:02:55;;;;;;;9.70;4.07;;;;;;;;;;8356079;28;20035;-60
2022/06/23 03:07:01;;;;;;;8.95;4.22;;;;;;;;;;8358150;28;20042;-60
2022/06/23 03:11:14;;;;;;;9.20;3.78;;;;;;;;;;8356724;28;20083;-59
2022/06/23 03:15:18;;;;;;;10.25;3.97;;;;;;;;;;8355938;28;20480;-60
2022/06/23 03:19:21;;;;;;;7.35;3.67;;;;;;;;;;8358368;28;20025;-60
2022/06/23 03:23:25;;;;;;;8.63;3.60;;;;;;;;;;8356169;28;20036;-61
2022/06/23 03:27:30;;;;;;;8.25;3.22;;;;;;;;;;8359238;28;20051;-60
2022/06/23 03:31:36;;;;;;;7.85;3.90;;;;;;;;;;8356164;28;20063;-60
2022/06/23 03:35:42;;;;;;;7.40;3.40;;;;;;;;;;8354482;28;20935;-60
2022/06/23 03:44:07;;;;;;;8.02;4.05;;;;;;;;;;8349360;28;20914;-60
2022/06/23 03:48:12;;;;;;;9.02;3.92;;;;;;;;;;8353473;28;20665;-61
2022/06/23 03:52:15;;;;;;;9.38;3.60;;;;;;;;;;8351299;28;20110;-60
2022/06/23 03:56:17;;;;;;;10.23;4.03;;;;;;;;;;8355522;28;20883;-60
2022/06/23 04:00:22;;;;;;;6.55;3.60;;;;;;;;;;8354635;28;20063;-60
2022/06/23 04:04:38;;;;;;;8.75;3.45;;;;;;;;;;8353950;28;20488;-60
2022/06/23 04:08:57;;;;;;;8.68;4.03;;;;;;;;;;8353930;28;20024;-60
2022/06/23 04:13:04;;;;;;;7.38;3.90;;;;;;;;;;8354718;28;20511;-60
2022/06/23 04:17:11;;;;;;;5.78;3.35;;;;;;;;;;8353482;28;20060;-60
2022/06/23 04:21:19;;;;;;;7.32;3.78;;;;;;;;;;8353358;28;20314;-60
2022/06/23 04:25:21;;;;;;;9.38;3.78;;;;;;;;;;8353970;28;20097;-61
2022/06/23 04:29:24;;;;;;;15.13;5.30;;;;;;;;;;8353995;28;20032;-60
2022/06/23 04:33:25;;;;;;;12.73;5.20;;;;;;;;;;8353612;28;20040;-61
2022/06/23 04:37:55;;;;;;;14.50;5.43;;;;;;;;;;8355740;28;20031;-60
2022/06/23 04:42:08;;;;;;;12.90;5.95;;;;;;;;;;8317136;28;20043;-60
2022/06/23 04:46:14;;;;;;;11.60;5.67;;;;;;;;;;8354178;28;20040;-60
2022/06/23 04:50:17;;;;;;;13.82;5.88;;;;;;;;;;8350317;28;20033;-60
2022/06/23 04:54:20;;;;;;;10.52;5.88;;;;;;;;;;8353491;28;20137;-60
2022/06/23 04:58:22;;;;;;;20.58;6.82;;;;;;;;;;8353351;28;20135;-61
2022/06/23 05:02:28;;;;;;;19.45;7.05;;;;;;;;;;8353436;28;20045;-60
2022/06/23 05:06:45;;;;;;;22.30;8.13;;;;;;;;;;8354560;28;20483;-60
2022/06/23 05:10:48;;;;;;;18.27;7.75;;;;;;;;;;8353983;28;20131;-60
2022/06/23 05:14:55;;;;;;;19.42;8.10;;;;;;;;;;8351944;28;20025;-60
2022/06/23 05:18:56;;;;;;;20.08;7.68;;;;;;;;;;8354622;28;20084;-60
2022/06/23 05:22:57;;;;;;;13.70;7.07;;;;;;;;;;8358316;28;20040;-60
2022/06/23 05:26:59;;;;;;;21.27;10.70;;;;;;;;;;8359540;28;20103;-61
2022/06/23 05:31:01;;;;;;;18.83;10.05;;;;;;;;;;8353766;28;20033;-60
2022/06/23 05:35:06;;;;;;;22.67;10.52;;;;;;;;;;8358861;28;20025;-60
2022/06/23 05:39:14;;;;;;;23.63;13.52;;;;;;;;;;8357277;28;20815;-60
2022/06/23 05:43:15;;;;;;;28.80;14.45;;;;;;;;;;8356887;28;20172;-60
2022/06/23 05:47:16;;;;;;;28.65;15.18;;;;;;;;;;8350199;28;20033;-60
2022/06/23 05:51:20;;;;;;;35.53;18.80;;;;;;;;;;8349921;28;20052;-60
2022/06/23 05:55:23;;;;;;;29.13;17.65;;;;;;;;;;8349210;28;20535;-60
2022/06/23 05:59:43;;;;;;;28.23;17.92;;;;;;;;;;8349842;28;20444;-60
2022/06/23 06:04:12;;;;;;;38.55;21.45;;;;;;;;;;8348548;28;20078;-60
2022/06/23 06:08:16;;;;;;;34.40;20.55;;;;;;;;;;8342987;28;20036;-60
2022/06/23 06:12:28;;;;;;;36.60;21.05;;;;;;;;;;8355963;28;20028;-60
2022/06/23 06:16:29;;;;;;;35.25;23.27;;;;;;;;;;8354364;28;20159;-61
2022/06/23 06:20:29;;;;;;;36.85;22.17;;;;;;;;;;8354048;28;20005;-60
2022/06/23 06:24:34;;;;;;;36.67;23.33;;;;;;;;;;8356250;28;20031;-61
2022/06/23 06:28:34;;;;;;;34.63;22.75;;;;;;;;;;8354312;28;20111;-60
2022/06/23 06:32:37;;;;;;;36.47;23.03;;;;;;;;;;8352599;28;20044;-60
2022/06/23 06:36:44;;;;;;;32.00;23.38;;;;;;;;;;8355214;28;20536;-59
2022/06/23 06:40:46;;;;;;;36.83;22.65;;;;;;;;;;8354816;28;20036;-59
2022/06/23 06:44:48;;;;;;;34.78;22.58;;;;;;;;;;8355054;28;20024;-59
2022/06/23 06:48:48;;;;;;;33.47;21.83;;;;;;;;;;8356144;28;20125;-59
2022/06/23 06:52:49;;;;;;;38.92;25.33;;;;;;;;;;8355229;28;20024;-59
2022/06/23 06:56:56;;;;;;;33.53;21.88;;;;;;;;;;8357139;28;20035;-59
2022/06/23 07:01:00;;;;;;;41.40;25.38;;;;;;;;;;8354437;28;20040;-59
2022/06/23 07:05:19;;;;;;;44.78;25.73;;;;;;;;;;8353605;28;20032;-59
2022/06/23 07:09:33;;;;;;;43.17;25.20;;;;;;;;;;8353675;28;20025;-59
2022/06/23 07:13:34;;;;;;;32.22;21.45;;;;;;;;;;8355792;28;20036;-59
2022/06/23 07:17:43;;;;;;;35.70;21.90;;;;;;;;;;8355457;28;20810;-59
2022/06/23 07:21:49;;;;;;;37.05;23.35;;;;;;;;;;8355140;28;20029;-60
2022/06/23 07:25:54;;;;;;;37.15;23.05;;;;;;;;;;8354455;28;20033;-59
2022/06/23 07:29:58;;;;;;;34.45;21.73;;;;;;;;;;8355342;28;20032;-59
2022/06/23 07:34:01;;;;;;;24.05;15.88;;;;;;;;;;8356339;28;20044;-59
2022/06/23 07:38:04;;;;;;;27.75;17.63;;;;;;;;;;8352955;28;20634;-59
2022/06/23 07:42:07;;;;;;;29.15;18.98;;;;;;;;;;8354812;28;20032;-59
2022/06/23 07:46:07;;;;;;;28.42;18.48;;;;;;;;;;8353705;28;20101;-59
2022/06/23 07:50:09;;;;;;;27.70;19.75;;;;;;;;;;8354473;28;20028;-59
2022/06/23 07:54:14;;;;;;;25.60;17.42;;;;;;;;;;8353830;28;20024;-59
2022/06/23 07:58:17;;;;;;;24.13;15.27;;;;;;;;;;8353622;28;20118;-59
2022/06/23 08:02:17;;;;;;;25.70;17.40;;;;;;;;;;8354134;28;20036;-59
2022/06/23 08:06:18;;;;;;;28.30;17.87;;;;;;;;;;8354237;28;20496;-59
2022/06/23 08:10:21;;;;;;;32.55;20.80;;;;;;;;;;8351633;28;20031;-60
2022/06/23 08:14:29;;;;;;;30.33;17.50;;;;;;;;;;8352936;28;20024;-59
2022/06/23 08:18:35;;;;;;;31.00;18.67;;;;;;;;;;8351169;28;20286;-59
2022/06/23 08:22:37;;;;;;;27.88;17.58;;;;;;;;;;8354040;28;20366;-59
2022/06/23 08:26:39;;;;;;;17.42;13.00;;;;;;;;;;8351459;28;20440;-59
2022/06/23 08:30:40;;;;;;;23.57;13.83;;;;;;;;;;8349156;28;20128;-60
2022/06/23 08:34:45;;;;;;;22.02;12.52;;;;;;;;;;8354122;28;20020;-59
2022/06/23 08:38:49;;;;;;;19.60;12.98;;;;;;;;;;8354449;28;20033;-59
2022/06/23 08:42:49;;;;;;;16.00;9.98;;;;;;;;;;8352212;28;20071;-59
2022/06/23 08:46:53;;;;;;;20.80;13.13;;;;;;;;;;8353409;28;20041;-59
2022/06/23 08:51:01;;;;;;;14.50;8.18;;;;;;;;;;8353637;28;20035;-59
2022/06/23 08:55:06;;;;;;;16.23;9.18;;;;;;;;;;8351065;28;20021;-59
2022/06/23 08:59:14;;;;;;;17.48;7.20;;;;;;;;;;8351349;28;20347;-59
2022/06/23 09:03:14;;;;;;;12.20;6.18;;;;;;;;;;8350085;28;20037;-59
2022/06/23 09:07:25;;;;;;;13.00;7.40;;;;;;;;;;8350909;28;20052;-59
2022/06/23 09:11:35;;;;;;;14.98;6.97;;;;;;;;;;8350698;28;20111;-60
2022/06/23 09:15:35;;;;;;;16.05;7.78;;;;;;;;;;8350478;28;20466;-59
2022/06/23 09:19:39;;;;;;;14.15;8.30;;;;;;;;;;8351730;28;20040;-59
2022/06/23 09:23:39;;;;;;;12.98;6.45;;;;;;;;;;8351049;28;20443;-59
2022/06/23 09:27:42;;;;;;;13.50;6.70;;;;;;;;;;8350942;28;20016;-59
2022/06/23 09:31:48;;;;;;;9.20;5.60;;;;;;;;;;8350600;28;20036;-59
2022/06/23 09:36:03;;;;;;;11.95;5.72;;;;;;;;;;8350490;28;20029;-59
2022/06/23 09:40:26;;;;;;;14.05;5.10;;;;;;;;;;8351207;28;20436;-59
2022/06/23 09:44:26;;;;;;;7.97;4.85;;;;;;;;;;8351665;28;20032;-59
2022/06/23 09:48:44;;;;;;;7.13;3.70;;;;;;;;;;8353011;28;20033;-59
2022/06/23 09:52:53;;;;;;;9.80;4.35;;;;;;;;;;8351625;28;20265;-59
2022/06/23 09:57:05;;;;;;;9.38;4.28;;;;;;;;;;8350562;28;20029;-59
2022/06/23 10:01:18;;;;;;;9.30;4.80;;;;;;;;;;8349369;28;20143;-59
2022/06/23 10:05:29;;;;;;;9.75;4.13;;;;;;;;;;8352611;28;20025;-59
2022/06/23 10:10:02;;;;;;;10.63;4.40;;;;;;;;;;8358027;28;20222;-59
2022/06/23 10:14:08;;;;;;;8.55;3.78;;;;;;;;;;8335075;28;20032;-59
2022/06/23 10:18:23;;;;;;;7.72;3.70;;;;;;;;;;8353972;28;20094;-59
2022/06/23 10:22:33;;;;;;;11.77;3.88;;;;;;;;;;8356658;28;20024;-59
2022/06/23 10:26:51;;;;;;;8.20;3.25;;;;;;;;;;8358606;28;20361;-59
2022/06/23 10:31:10;;;;;;;9.27;3.33;;;;;;;;;;8355637;28;20447;-59
2022/06/23 10:35:16;;;;;;;9.60;3.22;;;;;;;;;;8352719;28;20301;-59
2022/06/23 10:39:34;;;;;;;7.90;3.25;;;;;;;;;;8351736;28;20359;-59
2022/06/23 10:44:03;;;;;;;10.35;3.38;;;;;;;;;;8350954;28;20062;-59
2022/06/23 10:48:12;;;;;;;8.30;3.10;;;;;;;;;;8333579;28;20086;-59
2022/06/23 10:52:16;;;;;;;10.80;3.42;;;;;;;;;;8355106;28;20051;-59
2022/06/23 10:56:16;;;;;;;12.25;3.08;;;;;;;;;;8354868;28;20103;-59
2022/06/23 11:00:23;;;;;;;8.60;3.00;;;;;;;;;;8356669;28;20098;-59
2022/06/23 11:04:38;;;;;;;9.18;3.35;;;;;;;;;;8354554;28;20025;-59
2022/06/23 11:08:39;;;;;;;8.70;3.20;;;;;;;;;;8358107;28;20009;-59
2022/06/23 11:12:49;;;;;;;13.63;3.30;;;;;;;;;;8356470;28;20897;-59
2022/06/23 11:17:05;;;;;;;7.35;2.75;;;;;;;;;;8353321;28;20032;-59
2022/06/23 11:21:13;;;;;;;11.65;3.15;;;;;;;;;;8357564;28;20282;-60
2022/06/23 11:25:24;;;;;;;9.15;2.95;;;;;;;;;;8353178;28;20111;-59
2022/06/23 11:29:43;;;;;;;8.23;2.97;;;;;;;;;;8355959;28;20013;-59
2022/06/23 11:33:43;;;;;;;12.98;3.25;;;;;;;;;;8354195;28;20044;-59
2022/06/23 11:38:05;;;;;;;7.60;2.65;;;;;;;;;;8355588;28;20699;-59
2022/06/23 11:42:17;;;;;;;9.10;3.10;;;;;;;;;;8355188;28;20024;-59
2022/06/23 11:46:34;;;;;;;11.55;3.10;;;;;;;;;;8353962;28;20044;-59
2022/06/23 11:50:34;;;;;;;11.18;3.15;;;;;;;;;;8354665;28;20025;-59
2022/06/23 11:54:53;;;;;;;7.93;2.97;;;;;;;;;;8352371;28;20063;-59
2022/06/23 11:59:06;;;;;;;7.55;3.22;;;;;;;;;;8353607;28;20714;-59
2022/06/23 12:03:09;;;;;;;5.68;2.70;;;;;;;;;;8352106;28;20550;-59
2022/06/23 12:07:16;;;;;;;9.38;2.83;;;;;;;;;;8352684;28;20123;-59
2022/06/23 12:11:17;;;;;;;6.25;2.60;;;;;;;;;;8350905;28;20017;-58
2022/06/23 12:15:20;;;;;;;11.30;3.47;;;;;;;;;;8344940;28;20032;-59
2022/06/23 12:19:23;;;;;;;9.82;3.60;;;;;;;;;;8354590;28;20016;-59
2022/06/23 12:23:26;;;;;;;10.60;3.85;;;;;;;;;;8349497;28;20063;-59
2022/06/23 12:27:26;;;;;;;11.65;2.90;;;;;;;;;;8352303;28;20073;-59
2022/06/23 12:31:35;;;;;;;9.32;3.42;;;;;;;;;;8350618;28;20124;-59
2022/06/23 12:35:41;;;;;;;7.78;2.90;;;;;;;;;;8352894;28;20036;-59
2022/06/23 12:39:50;;;;;;;8.27;3.05;;;;;;;;;;8352287;28;20020;-59
2022/06/23 12:43:53;;;;;;;10.63;3.33;;;;;;;;;;8353101;28;20031;-59
2022/06/23 12:47:56;;;;;;;7.57;2.97;;;;;;;;;;8351393;28;20039;-59
2022/06/23 12:52:14;;;;;;;9.45;3.50;;;;;;;;;;8351633;28;20025;-59
2022/06/23 12:56:38;;;;;;;11.55;3.47;;;;;;;;;;8348659;28;20025;-59
2022/06/23 13:00:38;;;;;;;10.00;3.13;;;;;;;;;;8350646;28;20547;-59
2022/06/23 13:04:53;;;;;;;11.30;3.38;;;;;;;;;;8349525;28;20020;-59
2022/06/23 13:09:13;;;;;;;9.00;2.95;;;;;;;;;;8351136;28;20056;-59
2022/06/23 13:13:22;;;;;;;8.85;3.10;;;;;;;;;;8346409;28;20638;-59
2022/06/23 13:17:29;;;;;;;7.30;3.10;;;;;;;;;;8348229;28;20032;-59
2022/06/23 13:21:31;;;;;;;10.23;3.30;;;;;;;;;;8350704;28;20019;-59
2022/06/23 13:25:33;;;;;;;;;;;;;;;;;;8351375;28;20031;-59
2022/06/23 13:29:49;;;;;;;9.98;3.00;;;;;;;;;;8348857;28;20010;-59
2022/06/23 13:34:06;;;;;;;8.55;3.20;;;;;;;;;;8349023;28;20158;-59
2022/06/23 13:38:20;;;;;;;9.88;3.15;;;;;;;;;;8349990;28;20028;-59
2022/06/23 13:42:25;;;;;;;8.60;3.40;;;;;;;;;;8351799;28;20167;-59
2022/06/23 13:46:34;;;;;;;11.07;3.42;;;;;;;;;;8356074;28;20589;-59
2022/06/23 13:50:44;;;;;;;9.35;3.10;;;;;;;;;;8356746;28;20132;-59
2022/06/23 13:54:49;;;;;;;8.57;3.00;;;;;;;;;;8356125;28;20055;-59
2022/06/23 13:58:49;;;;;;;12.55;3.00;;;;;;;;;;8352719;28;20650;-62
2022/06/23 14:02:56;;;;;;;11.60;2.83;;;;;;;;;;8350494;28;20079;-62
2022/06/23 14:07:05;;;;;;;8.57;2.90;;;;;;;;;;8355037;28;20405;-63
2022/06/23 14:11:10;;;;;;;15.25;3.55;;;;;;;;;;8355820;28;20035;-60
2022/06/23 14:15:10;;;;;;;6.97;2.67;;;;;;;;;;8354701;28;20089;-60
2022/06/23 14:19:18;;;;;;;6.45;2.63;;;;;;;;;;8349917;28;20021;-59
2022/06/23 14:23:42;;;;;;;10.55;2.70;;;;;;;;;;8346447;28;20036;-59
2022/06/23 14:27:54;;;;;;;11.70;2.95;;;;;;;;;;8342109;28;20032;-59
2022/06/23 14:32:03;;;;;;;8.07;2.92;;;;;;;;;;8341637;28;20025;-59
2022/06/23 14:36:15;;;;;;;11.48;2.97;;;;;;;;;;8347244;28;20053;-59
2022/06/23 14:40:19;;;;;;;6.65;2.78;;;;;;;;;;8345855;28;20602;-60
2022/06/23 14:44:19;;;;;;;11.70;3.05;;;;;;;;;;8345489;28;20067;-60
2022/06/23 14:48:19;;;;;;;8.80;2.83;;;;;;;;;;8345456;28;20033;-59
2022/06/23 14:52:28;;;;;;;9.85;2.50;;;;;;;;;;8346179;28;20051;-59
2022/06/23 14:56:39;;;;;;;8.00;2.70;;;;;;;;;;8349165;28;20098;-59
2022/06/23 15:00:46;;;;;;;8.80;2.75;;;;;;;;;;8341814;28;20287;-59
2022/06/23 15:04:47;;;;;;;8.32;3.10;;;;;;;;;;8345204;28;20443;-60
2022/06/23 15:08:55;;;;;;;10.35;2.90;;;;;;;;;;8344555;28;20048;-60
2022/06/23 15:12:57;;;;;;;8.48;3.15;;;;;;;;;;8347813;28;20481;-59
2022/06/23 15:16:59;;;;;;;12.10;3.17;;;;;;;;;;8344213;28;20060;-60
2022/06/23 15:21:00;;;;;;;15.32;3.00;;;;;;;;;;8345399;28;20017;-59
2022/06/23 15:25:06;;;;;;;9.30;2.80;;;;;;;;;;8346163;28;20500;-59
2022/06/23 15:29:19;;;;;;;11.40;3.00;;;;;;;;;;8345492;28;20028;-59
2022/06/23 15:33:24;;;;;;;9.25;2.70;;;;;;;;;;8343737;28;20033;-60
2022/06/23 15:37:33;;;;;;;8.80;3.00;;;;;;;;;;8345291;28;20017;-60
2022/06/23 15:41:49;;;;;;;10.55;3.42;;;;;;;;;;8344017;28;20473;-59
2022/06/23 15:45:59;;;;;;;9.30;3.20;;;;;;;;;;8348063;28;20052;-59
2022/06/23 15:50:14;;;;;;;9.98;3.50;;;;;;;;;;8354706;28;20016;-59
2022/06/23 15:54:14;;;;;;;9.63;3.30;;;;;;;;;;8351255;28;20013;-60
2022/06/23 15:58:19;;;;;;;12.50;2.80;;;;;;;;;;8354890;28;20028;-59
2022/06/23 16:02:46;;;;;;;9.30;3.17;;;;;;;;;;8357183;28;20026;-59
2022/06/23 16:06:48;;;;;;;11.57;3.38;;;;;;;;;;8354326;28;20040;-59
2022/06/23 16:10:57;;;;;;;10.77;3.45;;;;;;;;;;8357375;28;20588;-59
2022/06/23 16:15:03;;;;;;;7.25;2.53;;;;;;;;;;8356446;28;20131;-59
2022/06/23 16:19:09;;;;;;;10.18;3.00;;;;;;;;;;8358393;28;20083;-60
2022/06/23 16:23:15;;;;;;;7.43;2.75;;;;;;;;;;8354421;28;20024;-59
2022/06/23 16:27:15;;;;;;;9.93;2.72;;;;;;;;;;8356557;28;20020;-60
2022/06/23 16:31:35;;;;;;;7.85;2.60;;;;;;;;;;8355066;28;20477;-60
2022/06/23 16:35:40;;;;;;;7.35;2.40;;;;;;;;;;8356376;28;20024;-59
2022/06/23 16:39:44;;;;;;;8.55;2.70;;;;;;;;;;8354363;28;20021;-60
2022/06/23 16:43:48;;;;;;;9.25;2.90;;;;;;;;;;8355892;28;20044;-59
2022/06/23 16:47:55;;;;;;;8.40;3.00;;;;;;;;;;8354384;28;20032;-60
2022/06/23 16:52:03;;;;;;;8.88;2.75;;;;;;;;;;8356527;28;20013;-59
2022/06/23 16:56:12;;;;;;;9.93;3.03;;;;;;;;;;8354591;28;20025;-59
2022/06/23 17:00:14;;;;;;;9.85;3.13;;;;;;;;;;8351167;28;21071;-60
2022/06/23 17:04:33;;;;;;;5.85;2.33;;;;;;;;;;8351766;28;20151;-59
2022/06/23 17:08:37;;;;;;;8.70;2.67;;;;;;;;;;8352340;28;20066;-59
2022/06/23 17:12:50;;;;;;;7.72;2.55;;;;;;;;;;8353602;28;20028;-60
2022/06/23 17:16:53;;;;;;;9.85;3.00;;;;;;;;;;8354406;28;21085;-59
2022/06/23 17:20:55;;;;;;;9.93;2.85;;;;;;;;;;8361095;28;20039;-59
2022/06/23 17:24:56;;;;;;;12.35;2.78;;;;;;;;;;8360926;28;20032;-60
2022/06/23 17:29:00;;;;;;;11.95;2.70;;;;;;;;;;8356786;28;20178;-59
2022/06/23 17:33:01;;;;;;;10.70;2.83;;;;;;;;;;8355565;28;20029;-59
2022/06/23 17:37:11;;;;;;;8.23;2.50;;;;;;;;;;8358428;28;20113;-60
2022/06/23 17:46:10;;;;;;;8.75;2.50;;;;;;;;;;8301021;28;20075;-59
2022/06/23 17:50:11;;;;;;;10.70;2.65;;;;;;;;;;8354667;28;20081;-59
2022/06/23 17:54:17;;;;;;;10.23;2.80;;;;;;;;;;8355230;28;20017;-59
2022/06/23 17:58:22;;;;;;;6.82;2.60;;;;;;;;;;8357131;28;20032;-59
2022/06/23 18:02:31;;;;;;;6.60;2.22;;;;;;;;;;8354546;28;20079;-59
2022/06/23 18:06:34;;;;;;;5.82;2.47;;;;;;;;;;8354457;28;20025;-59
2022/06/23 18:10:41;;;;;;;7.72;2.40;;;;;;;;;;8353362;28;20020;-59
2022/06/23 18:14:47;;;;;;;9.23;2.53;;;;;;;;;;8352620;28;20077;-60
2022/06/23 18:19:02;;;;;;;6.97;2.20;;;;;;;;;;8352321;28;20596;-60
2022/06/23 18:23:18;;;;;;;9.55;2.10;;;;;;;;;;8356617;28;20029;-59
2022/06/23 18:27:26;;;;;;;6.47;2.28;;;;;;;;;;8355554;28;20550;-59
2022/06/23 18:31:34;;;;;;;8.68;2.10;;;;;;;;;;8352613;28;20032;-59
2022/06/23 18:35:38;;;;;;;6.13;1.98;;;;;;;;;;8352831;28;20183;-62
2022/06/23 18:39:59;;;;;;;7.30;2.40;;;;;;;;;;8357317;28;20059;-61
2022/06/23 18:43:59;;;;;;;7.35;2.30;;;;;;;;;;8355560;28;20103;-60
2022/06/23 18:48:03;;;;;;;11.02;2.28;;;;;;;;;;8351377;28;20071;-59
2022/06/23 18:52:08;;;;;;;6.90;2.05;;;;;;;;;;8357087;28;20070;-60
2022/06/23 18:56:10;;;;;;;3.92;1.80;;;;;;;;;;8353300;28;20995;-61
2022/06/23 19:00:15;;;;;;;6.10;2.03;;;;;;;;;;8353911;28;20451;-60
2022/06/23 19:04:34;;;;;;;5.88;2.22;;;;;;;;;;8355315;28;20024;-60
2022/06/23 19:08:34;;;;;;;5.20;1.80;;;;;;;;;;8359161;28;20030;-59
2022/06/23 19:12:47;;;;;;;7.40;2.00;;;;;;;;;;8357662;28;20029;-60
2022/06/23 19:16:49;;;;;;;;;;;;;;;;;;8352407;28;20219;-60
2022/06/23 19:20:52;;;;;;;3.65;1.90;;;;;;;;;;8352124;28;20030;-59
2022/06/23 19:24:56;;;;;;;3.85;1.75;;;;;;;;;;8354704;28;20085;-60
2022/06/23 19:29:06;;;;;;;3.63;1.77;;;;;;;;;;8353815;28;21515;-59
2022/06/23 19:37:55;;;;;;;6.00;2.10;;;;;;;;;;8353309;28;20515;-60
2022/06/23 19:41:59;;;;;;;5.63;2.10;;;;;;;;;;8352554;28;20078;-59
2022/06/23 19:46:09;;;;;;;5.60;2.20;;;;;;;;;;8352407;28;20426;-59
2022/06/23 19:50:10;;;;;;;8.32;2.35;;;;;;;;;;8351842;28;20024;-59
2022/06/23 19:54:16;;;;;;;5.25;2.05;;;;;;;;;;8350981;28;20021;-60
2022/06/23 19:58:24;;;;;;;6.90;2.40;;;;;;;;;;8349571;28;20772;-61
2022/06/23 20:02:33;;;;;;;4.82;2.10;;;;;;;;;;8348056;28;20062;-60
2022/06/23 20:06:40;;;;;;;9.52;2.47;;;;;;;;;;8354633;28;20715;-59
2022/06/23 20:11:03;;;;;;;5.70;2.30;;;;;;;;;;8351365;28;20012;-59
2022/06/23 20:15:07;;;;;;;5.30;2.30;;;;;;;;;;8320025;28;20131;-60
2022/06/23 20:19:13;;;;;;;6.35;2.40;;;;;;;;;;8350513;28;20433;-60
2022/06/23 20:23:19;;;;;;;5.70;2.10;;;;;;;;;;8350304;28;20520;-59
2022/06/23 20:27:28;;;;;;;5.30;2.00;;;;;;;;;;8352002;28;20029;-60
2022/06/23 20:31:37;;;;;;;6.03;2.00;;;;;;;;;;8348943;28;20888;-59
2022/06/23 20:35:51;;;;;;;4.32;2.00;;;;;;;;;;8354415;28;20036;-59
2022/06/23 20:40:00;;;;;;;6.70;2.20;;;;;;;;;;8351035;28;20035;-61
2022/06/23 20:44:19;;;;;;;8.27;2.20;;;;;;;;;;8351263;28;20028;-61
2022/06/23 20:48:38;;;;;;;7.95;2.03;;;;;;;;;;8352919;28;20033;-59
2022/06/23 20:52:42;;;;;;;6.00;2.35;;;;;;;;;;8351054;28;20572;-59
2022/06/23 20:56:55;;;;;;;6.53;2.13;;;;;;;;;;8350651;28;20016;-60
2022/06/23 21:01:00;;;;;;;4.47;2.28;;;;;;;;;;8352141;28;20623;-60
2022/06/23 21:05:12;;;;;;;7.00;2.13;;;;;;;;;;8355482;28;20037;-60
2022/06/23 21:09:16;;;;;;;8.38;2.30;;;;;;;;;;8353999;28;20020;-60
2022/06/23 21:13:18;;;;;;;13.93;2.40;;;;;;;;;;8349489;28;20024;-61
2022/06/23 21:17:29;;;;;;;11.33;2.67;;;;;;;;;;8352479;28;20024;-60
2022/06/23 21:21:30;;;;;;;12.93;2.20;;;;;;;;;;8353339;28;20469;-61
2022/06/23 21:25:30;;;;;;;12.80;2.08;;;;;;;;;;8348608;28;20488;-60
2022/06/23 21:29:45;;;;;;;6.07;1.77;;;;;;;;;;8355038;28;20024;-60
2022/06/23 21:33:48;;;;;;;11.10;1.80;;;;;;;;;;8352996;28;20087;-60
2022/06/23 21:37:50;;;;;;;10.60;2.05;;;;;;;;;;8354306;28;20029;-61
2022/06/23 21:41:54;;;;;;;8.32;1.67;;;;;;;;;;8352276;28;20039;-60
2022/06/23 21:46:00;;;;;;;12.88;1.83;;;;;;;;;;8355267;28;20072;-61
2022/06/23 21:50:14;;;;;;;8.43;1.80;;;;;;;;;;8353252;28;20049;-60
2022/06/23 21:54:14;;;;;;;10.18;1.95;;;;;;;;;;8352674;28;20020;-60
2022/06/23 21:58:34;;;;;;;5.82;1.70;;;;;;;;;;8352808;28;20021;-61
2022/06/23 22:02:44;;;;;;;10.27;2.08;;;;;;;;;;8356758;28;20050;-60
2022/06/23 22:06:48;;;;;;;5.90;1.30;;;;;;;;;;8359627;28;20028;-60
2022/06/23 22:10:50;;;;;;;10.25;1.30;;;;;;;;;;8357743;28;20021;-60
2022/06/23 22:14:58;;;;;;;7.28;1.40;;;;;;;;;;8358966;28;20892;-62
2022/06/23 22:19:05;;;;;;;5.30;1.30;;;;;;;;;;8359266;28;20043;-61
2022/06/23 22:23:25;;;;;;;7.38;1.23;;;;;;;;;;8360525;28;20046;-61
2022/06/23 22:27:58;;;;;;;7.47;1.60;;;;;;;;;;8358097;28;20091;-60
2022/06/23 22:32:04;;;;;;;8.60;1.60;;;;;;;;;;8323528;28;20144;-61
2022/06/23 22:36:20;;;;;;;8.00;1.25;;;;;;;;;;8359666;28;20809;-60
2022/06/23 22:40:31;;;;;;;5.53;1.35;;;;;;;;;;8360649;28;20059;-61
2022/06/23 22:44:50;;;;;;;8.68;1.55;;;;;;;;;;8355616;28;20671;-60
2022/06/23 22:48:55;;;;;;;6.72;1.60;;;;;;;;;;8356938;28;20449;-60
2022/06/23 22:53:18;;;;;;;5.90;1.52;;;;;;;;;;8357238;28;20102;-60
2022/06/23 22:57:34;;;;;;;4.45;1.42;;;;;;;;;;8337387;28;20029;-60
2022/06/23 23:01:45;;;;;;;6.43;1.67;;;;;;;;;;8356873;28;20035;-60
2022/06/23 23:06:06;;;;;;;4.93;1.45;;;;;;;;;;8359459;28;20945;-62
2022/06/23 23:10:06;;;;;;;4.90;1.63;;;;;;;;;;8356635;28;20020;-60
2022/06/23 23:14:14;;;;;;;7.15;1.58;;;;;;;;;;8356643;28;20029;-60
2022/06/23 23:18:40;;;;;;;5.68;1.40;;;;;;;;;;8358836;28;20736;-60
2022/06/23 23:22:40;;;;;;;4.93;1.35;;;;;;;;;;8355704;28;20898;-61
2022/06/23 23:26:46;;;;;;;2.83;1.27;;;;;;;;;;8359471;28;20016;-60
2022/06/23 23:30:48;;;;;;;9.70;1.45;;;;;;;;;;8358675;28;20041;-60
2022/06/23 23:34:56;;;;;;;7.32;1.60;;;;;;;;;;8358555;28;21177;-61
2022/06/23 23:39:02;;;;;;;5.57;1.50;;;;;;;;;;8357288;28;20035;-60
2022/06/23 23:43:02;;;;;;;8.02;1.70;;;;;;;;;;8358168;28;20099;-60
2022/06/23 23:47:18;;;;;;;7.87;1.70;;;;;;;;;;8355751;28;20063;-60
2022/06/23 23:51:19;;;;;;;6.97;1.80;;;;;;;;;;8358940;28;20081;-60
2022/06/23 23:55:19;;;;;;;6.72;1.60;;;;;;;;;;8356284;28;20020;-60
2022/06/23 23:59:21;;;;;;;3.83;1.30;;;;;;;;;;8357091;28;20028;-61
